createdAt,value
2022-11-24T00:04:40.363Z,99415.25
2022-11-24T00:09:42.134Z,99428.38
2022-11-24T00:14:44.220Z,99431.38
2022-11-24T00:19:46.046Z,99432.84
2022-11-24T00:24:47.849Z,99435.53
2022-11-24T00:29:49.603Z,99437.09
2022-11-24T00:34:51.366Z,99431.94
2022-11-24T00:39:53.153Z,99435.47
2022-11-24T00:44:54.915Z,99434.44
2022-11-24T00:49:56.770Z,99435.97
2022-11-24T00:54:58.540Z,99434.25
2022-11-24T01:00:00.361Z,99439.41
2022-11-24T01:05:03.498Z,99436.75
2022-11-24T01:10:05.837Z,99429.84
2022-11-24T01:15:08.026Z,99430.81
2022-11-24T01:20:10.363Z,99432.19
2022-11-24T01:25:12.355Z,99442.06
2022-11-24T01:30:14.151Z,99443.63
2022-11-24T01:35:15.937Z,99447.22
2022-11-24T01:40:17.735Z,99438.47
2022-11-24T01:45:36.251Z,99431.59
2022-11-24T01:50:38.101Z,99444.75
2022-11-24T01:55:41.393Z,99448.94
2022-11-24T02:00:45.560Z,99446.53
2022-11-24T02:06:05.005Z,99449.63
2022-11-24T02:11:06.826Z,99444.41
2022-11-24T02:16:11.860Z,99446.97
2022-11-24T02:21:16.238Z,99444.75
2022-11-24T02:26:36.314Z,99450.66
2022-11-24T02:31:41.666Z,99453.31
2022-11-24T02:36:43.526Z,99433.81
2022-11-24T02:41:54.305Z,99431.94
2022-11-24T02:47:03.991Z,99437.94
2022-11-24T02:52:07.033Z,99431.84
2022-11-24T02:57:09.336Z,99447.56
2022-11-24T03:02:11.102Z,99460.78
2022-11-24T03:07:12.928Z,99458.91
2022-11-24T03:12:15.011Z,99459.09
2022-11-24T03:17:16.768Z,99461.97
2022-11-24T03:22:18.551Z,99469.28
2022-11-24T03:27:21.099Z,99468.53
2022-11-24T03:32:23.017Z,99475.06
2022-11-24T03:37:24.824Z,99468.19
2022-11-24T03:42:26.626Z,99469.72
2022-11-24T03:47:28.407Z,99479.09
2022-11-24T03:52:30.225Z,99488.81
2022-11-24T03:57:31.991Z,99479.88
2022-11-24T04:02:33.812Z,99488.66
2022-11-24T04:07:35.737Z,99481.41
2022-11-24T04:12:46.379Z,99485.53
2022-11-24T04:17:49.747Z,99482.09
2022-11-24T04:22:52.247Z,99489.16
2022-11-24T04:27:56.062Z,99476.88
2022-11-24T04:32:57.851Z,99481.16
2022-11-24T04:38:03.061Z,99484.06
2022-11-24T04:43:04.836Z,99494.91
2022-11-24T04:48:06.708Z,99499.38
2022-11-24T04:53:10.353Z,99509.00
2022-11-24T04:58:12.412Z,99520.84
2022-11-24T05:03:15.350Z,99533.31
2022-11-24T05:08:17.066Z,99540.44
2022-11-24T05:13:18.758Z,99538.81
2022-11-24T05:18:20.422Z,99553.41
2022-11-24T05:23:22.222Z,99550.13
2022-11-24T05:28:23.958Z,99545.41
2022-11-24T05:33:28.251Z,99548.25
2022-11-24T05:38:30.892Z,99544.28
2022-11-24T05:43:32.652Z,99550.41
2022-11-24T05:48:34.346Z,99559.16
2022-11-24T05:53:36.017Z,99555.47
2022-11-24T05:58:37.609Z,99550.16
2022-11-24T06:03:39.184Z,99569.47
2022-11-24T06:08:40.769Z,99577.47
2022-11-24T06:13:42.672Z,99589.06
2022-11-24T06:18:44.385Z,99584.38
2022-11-24T06:23:48.618Z,99594.22
2022-11-24T06:28:50.142Z,99605.91
2022-11-24T06:33:51.714Z,99613.72
2022-11-24T06:38:54.006Z,99622.31
2022-11-24T06:43:55.677Z,99642.88
2022-11-24T06:48:57.433Z,99643.31
2022-11-24T06:53:59.200Z,99660.50
2022-11-24T06:59:01.338Z,99665.28
2022-11-24T07:04:03.135Z,99666.94
2022-11-24T07:09:04.855Z,99669.72
2022-11-24T07:14:06.959Z,99675.50
2022-11-24T07:19:10.748Z,99677.66
2022-11-24T07:24:12.431Z,99705.41
2022-11-24T07:29:14.049Z,99688.16
2022-11-24T07:34:15.677Z,99692.91
2022-11-24T07:39:17.765Z,99695.16
2022-11-24T07:44:19.365Z,99699.31
2022-11-24T07:49:20.951Z,99697.06
2022-11-24T07:54:22.557Z,99695.53
2022-11-24T07:59:24.137Z,99696.47
2022-11-24T08:04:25.720Z,99691.72
2022-11-24T08:09:27.253Z,99691.91
2022-11-24T08:14:29.040Z,99687.63
2022-11-24T08:19:32.312Z,99688.13
2022-11-24T08:24:34.029Z,99703.97
2022-11-24T08:29:35.735Z,99708.84
2022-11-24T08:34:37.620Z,99723.16
2022-11-24T08:39:39.180Z,99720.31
2022-11-24T08:44:40.748Z,99724.56
2022-11-24T08:49:42.348Z,99730.97
2022-11-24T08:54:44.837Z,99731.22
2022-11-24T08:59:46.449Z,99735.38
2022-11-24T09:04:48.039Z,99742.69
2022-11-24T09:09:49.640Z,99747.50
2022-11-24T09:14:51.201Z,99746.81
2022-11-24T09:25:11.676Z,99744.59
2022-11-24T09:30:13.852Z,99752.59
2022-11-24T09:35:15.487Z,99752.31
2022-11-24T09:40:17.668Z,99756.19
2022-11-24T09:46:05.174Z,99760.19
2022-11-24T09:51:11.677Z,99751.56
2022-11-24T09:56:22.266Z,99733.22
2022-11-24T10:01:31.025Z,99754.25
2022-11-24T10:07:23.297Z,99748.53
2022-11-24T10:12:55.619Z,99750.28
2022-11-24T10:18:05.785Z,99752.53
2022-11-24T10:23:47.403Z,99759.94
2022-11-24T10:28:55.246Z,99757.56
2022-11-24T10:34:18.058Z,99753.81
2022-11-24T10:40:00.043Z,99754.66
2022-11-24T10:45:22.795Z,99765.13
2022-11-24T10:50:27.136Z,99750.47
2022-11-24T10:55:56.545Z,99749.13
2022-11-24T11:01:02.481Z,99748.47
2022-11-24T11:06:10.964Z,99760.91
2022-11-24T11:11:29.767Z,99757.47
2022-11-24T11:16:43.657Z,99750.94
2022-11-24T11:21:45.232Z,99759.84
2022-11-24T11:26:46.782Z,99745.94
2022-11-24T11:37:28.321Z,99746.78
2022-11-24T11:43:01.825Z,99747.25
2022-11-24T11:48:20.305Z,99746.13
2022-11-24T11:53:38.228Z,99761.97
2022-11-24T11:59:11.693Z,99766.94
2022-11-24T12:04:34.947Z,99762.25
2022-11-24T12:09:55.186Z,99759.09
2022-11-24T12:15:34.734Z,99754.53
2022-11-24T12:20:52.337Z,99761.22
2022-11-24T12:26:14.167Z,99761.22
2022-11-24T12:31:36.793Z,99764.09
2022-11-24T12:36:41.380Z,99763.91
2022-11-24T12:42:01.759Z,99755.84
2022-11-24T12:47:09.351Z,99765.03
2022-11-24T12:52:31.672Z,99765.97
2022-11-24T12:57:56.449Z,99775.81
2022-11-24T13:03:13.176Z,99767.31
2022-11-24T13:08:16.042Z,99765.56
2022-11-24T13:13:17.949Z,99772.47
2022-11-24T13:18:53.466Z,99785.09
2022-11-24T13:23:58.662Z,99793.88
2022-11-24T13:29:17.931Z,99799.06
2022-11-24T13:34:42.707Z,99796.00
2022-11-24T13:39:50.720Z,99796.84
2022-11-24T13:44:54.821Z,99790.84
2022-11-24T13:49:57.101Z,99795.34
2022-11-24T13:54:59.148Z,99804.50
2022-11-24T14:00:01.704Z,99796.56
2022-11-24T14:05:03.619Z,99807.09
2022-11-24T14:10:05.891Z,99826.19
2022-11-24T14:15:27.140Z,99819.50
2022-11-24T14:20:28.879Z,99819.69
2022-11-24T14:25:32.353Z,99814.72
2022-11-24T14:30:34.376Z,99829.03
2022-11-24T14:35:36.474Z,99832.09
2022-11-24T14:40:50.709Z,99844.44
2022-11-24T14:45:56.421Z,99850.81
2022-11-24T14:51:19.323Z,99837.03
2022-11-24T14:56:26.335Z,99843.94
2022-11-24T15:01:27.936Z,99850.03
2022-11-24T15:06:29.614Z,99861.09
2022-11-24T15:11:32.684Z,99855.56
2022-11-24T15:16:34.288Z,99866.97
2022-11-24T15:21:37.094Z,99867.34
2022-11-24T15:26:42.193Z,99870.75
2022-11-24T15:31:49.394Z,99869.28
2022-11-24T15:36:54.050Z,99880.91
2022-11-24T15:41:55.664Z,99883.56
2022-11-24T15:46:57.279Z,99892.50
2022-11-24T15:51:59.029Z,99898.56
2022-11-24T15:57:00.619Z,99896.31
2022-11-24T16:02:02.245Z,99896.13
2022-11-24T16:07:06.268Z,99907.69
2022-11-24T16:12:08.746Z,99906.28
2022-11-24T16:17:10.318Z,99898.88
2022-11-24T16:22:11.889Z,99910.16
2022-11-24T16:27:13.427Z,99906.72
2022-11-24T16:32:15.026Z,99907.66
2022-11-24T16:37:16.608Z,99918.16
2022-11-24T16:42:18.275Z,99923.50
2022-11-24T16:47:20.133Z,99922.59
2022-11-24T16:52:21.719Z,99929.91
2022-11-24T16:57:23.303Z,99941.81
2022-11-24T17:02:25.103Z,99948.31
2022-11-24T17:07:26.909Z,99950.19
2022-11-24T17:12:28.713Z,99956.50
2022-11-24T17:17:30.298Z,99959.78
2022-11-24T17:22:31.857Z,99965.38
2022-11-24T17:27:33.446Z,99972.88
2022-11-24T17:32:35.138Z,99970.81
2022-11-24T17:37:37.138Z,99979.59
2022-11-24T17:42:38.701Z,99982.47
2022-11-24T17:47:40.237Z,99985.81
2022-11-24T17:52:41.782Z,99988.72
2022-11-24T17:57:43.342Z,99996.16
2022-11-24T18:02:44.936Z,100001.34
2022-11-24T18:07:46.640Z,99995.38
2022-11-24T18:12:48.210Z,100010.63
2022-11-24T18:17:52.384Z,100004.94
2022-11-24T18:23:09.308Z,100027.16
2022-11-24T18:28:10.889Z,100020.28
2022-11-24T18:33:12.496Z,100018.47
2022-11-24T18:38:14.039Z,100020.13
2022-11-24T18:43:15.592Z,100017.16
2022-11-24T18:48:17.159Z,100013.81
2022-11-24T18:53:19.941Z,100017.72
2022-11-24T18:58:21.630Z,100014.09
2022-11-24T19:03:23.200Z,100013.56
2022-11-24T19:08:24.749Z,100019.25
2022-11-24T19:13:26.319Z,100019.78
2022-11-24T19:18:31.119Z,100023.22
2022-11-24T19:23:32.705Z,100012.88
2022-11-24T19:28:34.410Z,100018.31
2022-11-24T19:33:36.179Z,100022.03
2022-11-24T19:38:38.171Z,100030.81
2022-11-24T19:43:40.875Z,100037.19
2022-11-24T19:48:44.446Z,100041.69
2022-11-24T19:53:46.386Z,100051.44
2022-11-24T19:58:48.733Z,100052.53
2022-11-24T20:04:01.053Z,100065.84
2022-11-24T20:09:05.504Z,100071.34
2022-11-24T20:14:10.082Z,100081.53
2022-11-24T20:19:13.399Z,100076.41
2022-11-24T20:24:24.659Z,100085.81
2022-11-24T20:29:29.193Z,100090.06
2022-11-24T20:34:30.803Z,100092.47
2022-11-24T20:39:32.370Z,100098.44
2022-11-24T20:44:34.231Z,100102.59
2022-11-24T20:49:36.026Z,100101.34
2022-11-24T20:54:38.382Z,100102.94
2022-11-24T20:59:39.994Z,100107.41
2022-11-24T21:04:41.735Z,100115.69
2022-11-24T21:09:43.349Z,100109.47
2022-11-24T21:14:44.881Z,100114.66
2022-11-24T21:19:46.677Z,100122.06
2022-11-24T21:24:48.225Z,100123.66
2022-11-24T21:29:49.791Z,100128.13
2022-11-24T21:34:51.334Z,100130.81
2022-11-24T21:39:53.074Z,100139.00
2022-11-24T21:44:54.699Z,100131.75
2022-11-24T21:49:56.329Z,100137.78
2022-11-24T21:54:57.895Z,100133.16
2022-11-24T21:59:59.434Z,100141.19
2022-11-24T22:05:01.101Z,100138.31
2022-11-24T22:10:02.735Z,100140.66
2022-11-24T22:15:04.559Z,100143.84
2022-11-24T22:20:06.923Z,100144.88
2022-11-24T22:25:08.640Z,100146.25
2022-11-24T22:30:10.655Z,100149.72
2022-11-24T22:35:12.199Z,100140.22
2022-11-24T22:40:13.844Z,100147.28
2022-11-24T22:45:15.410Z,100148.59
2022-11-24T22:50:17.020Z,100158.88
2022-11-24T22:55:18.570Z,100163.16
2022-11-24T23:00:20.428Z,100170.94
2022-11-24T23:05:22.026Z,100172.66
2022-11-24T23:10:23.625Z,100181.47
2022-11-24T23:15:25.254Z,100178.03
2022-11-24T23:20:26.912Z,100177.59
2022-11-24T23:25:28.548Z,100163.53
2022-11-24T23:30:30.159Z,100163.53
2022-11-24T23:35:33.047Z,100167.31
2022-11-24T23:40:34.680Z,100172.75
2022-11-24T23:45:36.314Z,100174.06
2022-11-24T23:50:37.886Z,100179.41
2022-11-24T23:55:39.712Z,100175.41
